sensor_id;sensor_type;location;lat;lon;timestamp;pressure;altitude;pressure_sealevel;temperature;humidity
42289;BME280;30230;47.520;19.016;2022-08-19T00:01:15;98589.13;;;25.54;50.42
42289;BME280;30230;47.520;19.016;2022-08-19T00:03:16;98586.97;;;25.51;50.34
42289;BME280;30230;47.520;19.016;2022-08-19T00:05:17;98592.50;;;25.51;49.75
42289;BME280;30230;47.520;19.016;2022-08-19T00:07:19;98592.50;;;25.51;50.10
42289;BME280;30230;47.520;19.016;2022-08-19T00:09:21;98587.31;;;25.58;49.92
42289;BME280;30230;47.520;19.016;2022-08-19T00:11:25;98598.53;;;25.53;50.06
42289;BME280;30230;47.520;19.016;2022-08-19T00:13:27;98585.53;;;25.54;49.42
42289;BME280;30230;47.520;19.016;2022-08-19T00:15:28;98587.97;;;25.55;49.32
42289;BME280;30230;47.520;19.016;2022-08-19T00:17:29;98584.41;;;25.55;49.66
42289;BME280;30230;47.520;19.016;2022-08-19T00:19:30;98585.69;;;25.49;49.82
42289;BME280;30230;47.520;19.016;2022-08-19T00:21:30;98584.88;;;25.57;49.78
42289;BME280;30230;47.520;19.016;2022-08-19T00:23:31;98588.44;;;25.49;49.31
42289;BME280;30230;47.520;19.016;2022-08-19T00:25:34;98582.25;;;25.52;49.40
42289;BME280;30230;47.520;19.016;2022-08-19T00:27:35;98581.31;;;25.56;49.46
42289;BME280;30230;47.520;19.016;2022-08-19T00:29:36;98587.78;;;25.52;50.11
42289;BME280;30230;47.520;19.016;2022-08-19T00:31:36;98585.22;;;25.55;49.66
42289;BME280;30230;47.520;19.016;2022-08-19T00:33:37;98588.94;;;25.51;49.76
42289;BME280;30230;47.520;19.016;2022-08-19T00:35:38;98584.97;;;25.43;49.29
42289;BME280;30230;47.520;19.016;2022-08-19T00:37:38;98583.34;;;25.42;49.52
42289;BME280;30230;47.520;19.016;2022-08-19T00:39:43;98585.34;;;25.50;49.19
42289;BME280;30230;47.520;19.016;2022-08-19T00:41:44;98588.16;;;25.59;49.02
42289;BME280;30230;47.520;19.016;2022-08-19T00:43:58;98585.69;;;25.57;49.48
42289;BME280;30230;47.520;19.016;2022-08-19T00:46:01;98588.66;;;25.61;49.69
42289;BME280;30230;47.520;19.016;2022-08-19T00:48:04;98587.16;;;25.55;49.35
42289;BME280;30230;47.520;19.016;2022-08-19T00:50:06;98585.22;;;25.55;49.75
42289;BME280;30230;47.520;19.016;2022-08-19T00:52:14;98575.44;;;25.49;49.54
42289;BME280;30230;47.520;19.016;2022-08-19T00:54:16;98565.47;;;25.48;49.82
42289;BME280;30230;47.520;19.016;2022-08-19T00:56:17;98581.38;;;25.42;50.20
42289;BME280;30230;47.520;19.016;2022-08-19T00:58:21;98575.38;;;25.40;49.81
42289;BME280;30230;47.520;19.016;2022-08-19T01:00:24;98577.47;;;25.35;50.79
42289;BME280;30230;47.520;19.016;2022-08-19T01:02:26;98578.28;;;25.35;50.08
42289;BME280;30230;47.520;19.016;2022-08-19T01:04:27;98572.75;;;25.35;49.93
42289;BME280;30230;47.520;19.016;2022-08-19T01:06:28;98563.78;;;25.30;50.38
42289;BME280;30230;47.520;19.016;2022-08-19T01:08:33;98568.69;;;25.33;50.39
42289;BME280;30230;47.520;19.016;2022-08-19T01:10:37;98568.81;;;25.28;50.85
42289;BME280;30230;47.520;19.016;2022-08-19T01:12:39;98577.88;;;25.19;52.20
42289;BME280;30230;47.520;19.016;2022-08-19T01:14:40;98583.22;;;25.16;50.90
42289;BME280;30230;47.520;19.016;2022-08-19T01:16:41;98577.50;;;25.12;50.78
42289;BME280;30230;47.520;19.016;2022-08-19T01:18:42;98574.56;;;25.09;51.48
42289;BME280;30230;47.520;19.016;2022-08-19T01:20:43;98566.38;;;25.04;51.06
42289;BME280;30230;47.520;19.016;2022-08-19T01:22:47;98564.75;;;25.03;51.69
42289;BME280;30230;47.520;19.016;2022-08-19T01:24:48;98563.09;;;25.02;51.44
42289;BME280;30230;47.520;19.016;2022-08-19T01:26:48;98552.94;;;24.88;51.51
42289;BME280;30230;47.520;19.016;2022-08-19T01:28:52;98558.09;;;24.81;51.79
42289;BME280;30230;47.520;19.016;2022-08-19T01:30:54;98568.03;;;24.82;51.54
42289;BME280;30230;47.520;19.016;2022-08-19T01:32:55;98564.94;;;24.84;51.42
42289;BME280;30230;47.520;19.016;2022-08-19T01:34:55;98560.53;;;24.83;51.54
42289;BME280;30230;47.520;19.016;2022-08-19T01:36:55;98545.66;;;24.70;52.70
42289;BME280;30230;47.520;19.016;2022-08-19T01:38:57;98556.97;;;24.82;52.61
42289;BME280;30230;47.520;19.016;2022-08-19T01:40:58;98546.06;;;24.77;52.14
42289;BME280;30230;47.520;19.016;2022-08-19T01:42:59;98543.03;;;24.65;52.48
42289;BME280;30230;47.520;19.016;2022-08-19T01:45:00;98548.88;;;24.63;53.03
42289;BME280;30230;47.520;19.016;2022-08-19T01:47:00;98544.28;;;24.59;52.71
42289;BME280;30230;47.520;19.016;2022-08-19T01:49:02;98539.41;;;24.56;52.66
42289;BME280;30230;47.520;19.016;2022-08-19T01:51:03;98537.94;;;24.58;53.07
42289;BME280;30230;47.520;19.016;2022-08-19T01:53:08;98538.31;;;24.65;52.72
42289;BME280;30230;47.520;19.016;2022-08-19T01:55:15;98526.66;;;24.68;52.23
42289;BME280;30230;47.520;19.016;2022-08-19T01:57:16;98531.56;;;24.72;52.50
42289;BME280;30230;47.520;19.016;2022-08-19T01:59:19;98529.59;;;24.72;52.78
42289;BME280;30230;47.520;19.016;2022-08-19T02:01:20;98522.00;;;24.78;52.18
42289;BME280;30230;47.520;19.016;2022-08-19T02:03:21;98528.47;;;24.73;51.97
42289;BME280;30230;47.520;19.016;2022-08-19T02:05:22;98521.88;;;24.83;51.23
42289;BME280;30230;47.520;19.016;2022-08-19T02:07:23;98514.41;;;24.83;51.24
42289;BME280;30230;47.520;19.016;2022-08-19T02:09:24;98514.72;;;24.82;51.49
42289;BME280;30230;47.520;19.016;2022-08-19T02:11:28;98515.41;;;24.87;50.78
42289;BME280;30230;47.520;19.016;2022-08-19T02:13:31;98513.59;;;24.83;51.52
42289;BME280;30230;47.520;19.016;2022-08-19T02:15:32;98515.22;;;24.84;51.38
42289;BME280;30230;47.520;19.016;2022-08-19T02:17:32;98510.16;;;24.77;51.29
42289;BME280;30230;47.520;19.016;2022-08-19T02:19:33;98517.97;;;24.84;51.23
42289;BME280;30230;47.520;19.016;2022-08-19T02:21:34;98518.47;;;24.86;50.98
42289;BME280;30230;47.520;19.016;2022-08-19T02:23:35;98518.72;;;24.76;52.09
42289;BME280;30230;47.520;19.016;2022-08-19T02:25:35;98517.34;;;24.64;52.49
42289;BME280;30230;47.520;19.016;2022-08-19T02:27:36;98513.28;;;24.62;52.24
42289;BME280;30230;47.520;19.016;2022-08-19T02:29:36;98508.09;;;24.60;52.39
42289;BME280;30230;47.520;19.016;2022-08-19T02:31:37;98503.81;;;24.54;52.49
42289;BME280;30230;47.520;19.016;2022-08-19T02:33:38;98503.09;;;24.49;52.55
42289;BME280;30230;47.520;19.016;2022-08-19T02:35:46;98513.88;;;24.50;52.51
42289;BME280;30230;47.520;19.016;2022-08-19T02:37:46;98518.88;;;24.34;52.95
42289;BME280;30230;47.520;19.016;2022-08-19T02:40:06;98515.94;;;24.31;52.88
42289;BME280;30230;47.520;19.016;2022-08-19T02:42:07;98512.78;;;24.24;53.65
42289;BME280;30230;47.520;19.016;2022-08-19T02:44:07;98522.72;;;24.25;53.08
42289;BME280;30230;47.520;19.016;2022-08-19T02:46:17;98510.47;;;24.17;53.34
42289;BME280;30230;47.520;19.016;2022-08-19T02:48:22;98526.81;;;24.13;53.74
42289;BME280;30230;47.520;19.016;2022-08-19T02:50:23;98517.53;;;24.09;53.93
42289;BME280;30230;47.520;19.016;2022-08-19T02:52:23;98514.91;;;24.04;54.01
42289;BME280;30230;47.520;19.016;2022-08-19T02:54:25;98530.53;;;24.09;54.02
42289;BME280;30230;47.520;19.016;2022-08-19T02:56:26;98538.28;;;24.07;53.99
42289;BME280;30230;47.520;19.016;2022-08-19T02:58:27;98541.97;;;24.02;54.21
42289;BME280;30230;47.520;19.016;2022-08-19T03:00:27;98544.03;;;23.97;54.27
42289;BME280;30230;47.520;19.016;2022-08-19T03:02:28;98549.75;;;24.00;54.29
42289;BME280;30230;47.520;19.016;2022-08-19T03:04:29;98547.00;;;24.00;54.21
42289;BME280;30230;47.520;19.016;2022-08-19T03:06:30;98538.91;;;24.04;54.48
42289;BME280;30230;47.520;19.016;2022-08-19T03:08:31;98529.91;;;23.98;54.56
42289;BME280;30230;47.520;19.016;2022-08-19T03:10:32;98539.31;;;23.97;54.50
42289;BME280;30230;47.520;19.016;2022-08-19T03:12:36;98540.53;;;24.05;54.36
42289;BME280;30230;47.520;19.016;2022-08-19T03:14:37;98541.25;;;23.97;54.34
42289;BME280;30230;47.520;19.016;2022-08-19T03:16:46;98549.53;;;23.97;55.01
42289;BME280;30230;47.520;19.016;2022-08-19T03:18:47;98549.97;;;23.90;55.03
42289;BME280;30230;47.520;19.016;2022-08-19T03:20:50;98549.34;;;23.93;54.48
42289;BME280;30230;47.520;19.016;2022-08-19T03:22:52;98565.66;;;24.03;54.16
42289;BME280;30230;47.520;19.016;2022-08-19T03:24:53;98566.31;;;24.00;54.83
42289;BME280;30230;47.520;19.016;2022-08-19T03:26:54;98555.59;;;23.99;54.53
42289;BME280;30230;47.520;19.016;2022-08-19T03:28:57;98555.59;;;23.99;54.39
42289;BME280;30230;47.520;19.016;2022-08-19T03:31:03;98556.19;;;23.96;54.37
42289;BME280;30230;47.520;19.016;2022-08-19T03:33:04;98557.81;;;23.97;54.53
42289;BME280;30230;47.520;19.016;2022-08-19T03:35:04;98552.81;;;23.99;54.08
42289;BME280;30230;47.520;19.016;2022-08-19T03:37:11;98564.66;;;23.99;54.21
42289;BME280;30230;47.520;19.016;2022-08-19T03:39:14;98569.66;;;23.97;54.21
42289;BME280;30230;47.520;19.016;2022-08-19T03:41:21;98560.78;;;24.00;53.78
42289;BME280;30230;47.520;19.016;2022-08-19T03:43:21;98566.31;;;24.00;53.91
42289;BME280;30230;47.520;19.016;2022-08-19T03:45:23;98559.75;;;23.96;53.98
42289;BME280;30230;47.520;19.016;2022-08-19T03:47:23;98568.31;;;24.08;53.56
42289;BME280;30230;47.520;19.016;2022-08-19T03:49:27;98571.00;;;24.00;54.32
42289;BME280;30230;47.520;19.016;2022-08-19T03:51:32;98571.28;;;23.98;54.17
42289;BME280;30230;47.520;19.016;2022-08-19T03:53:34;98575.72;;;23.99;53.83
42289;BME280;30230;47.520;19.016;2022-08-19T03:55:41;98571.94;;;23.95;53.73
42289;BME280;30230;47.520;19.016;2022-08-19T03:57:41;98569.16;;;23.95;53.77
42289;BME280;30230;47.520;19.016;2022-08-19T03:59:42;98587.56;;;24.00;53.63
42289;BME280;30230;47.520;19.016;2022-08-19T04:01:43;98580.59;;;24.02;53.81
42289;BME280;30230;47.520;19.016;2022-08-19T04:03:44;98573.03;;;24.08;53.70
42289;BME280;30230;47.520;19.016;2022-08-19T04:05:46;98566.69;;;24.07;53.93
42289;BME280;30230;47.520;19.016;2022-08-19T04:07:47;98578.66;;;24.03;53.74
42289;BME280;30230;47.520;19.016;2022-08-19T04:09:48;98585.38;;;24.10;53.46
42289;BME280;30230;47.520;19.016;2022-08-19T04:11:51;98585.88;;;24.12;53.13
42289;BME280;30230;47.520;19.016;2022-08-19T04:13:55;98587.03;;;24.11;53.20
42289;BME280;30230;47.520;19.016;2022-08-19T04:15:56;98589.78;;;24.11;53.06
42289;BME280;30230;47.520;19.016;2022-08-19T04:17:56;98601.94;;;24.10;53.70
42289;BME280;30230;47.520;19.016;2022-08-19T04:19:57;98601.41;;;24.08;53.60
42289;BME280;30230;47.520;19.016;2022-08-19T04:21:58;98604.50;;;24.07;53.80
42289;BME280;30230;47.520;19.016;2022-08-19T04:23:59;98593.88;;;24.00;54.16
42289;BME280;30230;47.520;19.016;2022-08-19T04:25:59;98582.84;;;24.00;54.06
42289;BME280;30230;47.520;19.016;2022-08-19T04:28:00;98586.44;;;24.01;53.86
42289;BME280;30230;47.520;19.016;2022-08-19T04:30:00;98586.53;;;24.09;53.58
42289;BME280;30230;47.520;19.016;2022-08-19T04:32:02;98600.94;;;24.06;53.86
42289;BME280;30230;47.520;19.016;2022-08-19T04:34:06;98595.91;;;24.08;53.57
42289;BME280;30230;47.520;19.016;2022-08-19T04:36:07;98607.47;;;24.10;53.51
42289;BME280;30230;47.520;19.016;2022-08-19T04:38:09;98608.59;;;24.09;53.89
42289;BME280;30230;47.520;19.016;2022-08-19T04:40:09;98605.84;;;24.09;53.81
42289;BME280;30230;47.520;19.016;2022-08-19T04:42:29;98599.69;;;24.12;53.67
42289;BME280;30230;47.520;19.016;2022-08-19T04:44:41;98612.88;;;24.15;54.21
42289;BME280;30230;47.520;19.016;2022-08-19T04:46:42;98609.09;;;24.11;53.94
42289;BME280;30230;47.520;19.016;2022-08-19T04:48:42;98600.81;;;24.11;53.95
42289;BME280;30230;47.520;19.016;2022-08-19T04:50:43;98599.06;;;24.15;54.29
42289;BME280;30230;47.520;19.016;2022-08-19T04:52:44;98588.47;;;24.09;54.13
42289;BME280;30230;47.520;19.016;2022-08-19T04:54:44;98590.28;;;24.13;54.13
42289;BME280;30230;47.520;19.016;2022-08-19T04:56:45;98593.88;;;24.14;54.20
42289;BME280;30230;47.520;19.016;2022-08-19T04:58:45;98600.00;;;24.11;54.63
42289;BME280;30230;47.520;19.016;2022-08-19T05:00:46;98600.00;;;24.11;55.01
42289;BME280;30230;47.520;19.016;2022-08-19T05:02:46;98611.94;;;24.20;54.58
42289;BME280;30230;47.520;19.016;2022-08-19T05:04:46;98608.16;;;24.16;54.55
42289;BME280;30230;47.520;19.016;2022-08-19T05:06:48;98611.53;;;24.13;54.41
42289;BME280;30230;47.520;19.016;2022-08-19T05:08:49;98605.09;;;24.17;54.28
42289;BME280;30230;47.520;19.016;2022-08-19T05:10:51;98606.22;;;24.16;54.48
42289;BME280;30230;47.520;19.016;2022-08-19T05:12:52;98597.94;;;24.16;54.49
42289;BME280;30230;47.520;19.016;2022-08-19T05:14:52;98611.03;;;24.25;54.02
42289;BME280;30230;47.520;19.016;2022-08-19T05:16:54;98608.56;;;24.23;54.43
42289;BME280;30230;47.520;19.016;2022-08-19T05:18:55;98608.16;;;24.30;54.28
42289;BME280;30230;47.520;19.016;2022-08-19T05:21:17;98606.13;;;24.35;54.27
42289;BME280;30230;47.520;19.016;2022-08-19T05:23:36;98604.34;;;24.39;53.80
42289;BME280;30230;47.520;19.016;2022-08-19T05:25:39;98607.13;;;24.39;54.02
42289;BME280;30230;47.520;19.016;2022-08-19T05:27:41;98605.19;;;24.40;54.08
42289;BME280;30230;47.520;19.016;2022-08-19T05:29:41;98596.28;;;24.43;54.38
42289;BME280;30230;47.520;19.016;2022-08-19T05:31:42;98608.13;;;24.43;54.12
42289;BME280;30230;47.520;19.016;2022-08-19T05:33:43;98604.44;;;24.48;53.41
42289;BME280;30230;47.520;19.016;2022-08-19T05:35:43;98601.88;;;24.52;54.00
42289;BME280;30230;47.520;19.016;2022-08-19T05:37:44;98595.72;;;24.55;53.29
42289;BME280;30230;47.520;19.016;2022-08-19T05:39:44;98601.44;;;24.58;53.49
42289;BME280;30230;47.520;19.016;2022-08-19T05:41:54;98608.47;;;24.64;53.22
42289;BME280;30230;47.520;19.016;2022-08-19T05:43:57;98610.75;;;24.62;53.21
42289;BME280;30230;47.520;19.016;2022-08-19T05:45:58;98613.88;;;24.69;53.20
42289;BME280;30230;47.520;19.016;2022-08-19T05:47:58;98600.59;;;24.72;53.10
42289;BME280;30230;47.520;19.016;2022-08-19T05:49:59;98608.25;;;24.75;52.65
42289;BME280;30230;47.520;19.016;2022-08-19T05:52:06;98610.06;;;24.79;52.48
42289;BME280;30230;47.520;19.016;2022-08-19T05:54:07;98616.00;;;24.86;52.17
42289;BME280;30230;47.520;19.016;2022-08-19T05:56:11;98611.56;;;24.85;52.58
42289;BME280;30230;47.520;19.016;2022-08-19T05:58:12;98616.97;;;24.90;52.86
42289;BME280;30230;47.520;19.016;2022-08-19T06:00:13;98610.03;;;24.93;52.93
42289;BME280;30230;47.520;19.016;2022-08-19T06:02:14;98613.91;;;24.92;52.31
42289;BME280;30230;47.520;19.016;2022-08-19T06:04:14;98618.06;;;25.03;52.31
42289;BME280;30230;47.520;19.016;2022-08-19T06:06:16;98615.78;;;25.05;52.61
42289;BME280;30230;47.520;19.016;2022-08-19T06:08:16;98613.72;;;25.11;51.29
42289;BME280;30230;47.520;19.016;2022-08-19T06:10:18;98613.44;;;25.12;51.48
42289;BME280;30230;47.520;19.016;2022-08-19T06:12:18;98604.00;;;25.13;51.18
42289;BME280;30230;47.520;19.016;2022-08-19T06:14:22;98617.06;;;25.22;51.42
42289;BME280;30230;47.520;19.016;2022-08-19T06:16:23;98612.22;;;25.27;51.41
42289;BME280;30230;47.520;19.016;2022-08-19T06:18:23;98612.75;;;25.38;51.01
42289;BME280;30230;47.520;19.016;2022-08-19T06:20:24;98618.28;;;25.38;50.88
42289;BME280;30230;47.520;19.016;2022-08-19T06:22:25;98609.69;;;25.39;50.75
42289;BME280;30230;47.520;19.016;2022-08-19T06:24:27;98606.94;;;25.48;50.84
42289;BME280;30230;47.520;19.016;2022-08-19T06:26:28;98616.44;;;25.56;50.36
42289;BME280;30230;47.520;19.016;2022-08-19T06:28:28;98614.97;;;25.58;50.53
42289;BME280;30230;47.520;19.016;2022-08-19T06:30:29;98602.97;;;25.63;50.36
42289;BME280;30230;47.520;19.016;2022-08-19T06:32:29;98603.63;;;25.68;50.24
42289;BME280;30230;47.520;19.016;2022-08-19T06:34:32;98596.41;;;25.81;49.66
42289;BME280;30230;47.520;19.016;2022-08-19T06:36:40;98596.00;;;25.74;49.49
42289;BME280;30230;47.520;19.016;2022-08-19T06:38:41;98583.06;;;25.83;49.70
42289;BME280;30230;47.520;19.016;2022-08-19T06:40:42;98596.44;;;25.90;49.38
42289;BME280;30230;47.520;19.016;2022-08-19T06:42:42;98601.97;;;25.98;49.36
42289;BME280;30230;47.520;19.016;2022-08-19T06:44:45;98599.88;;;26.04;49.47
42289;BME280;30230;47.520;19.016;2022-08-19T06:46:46;98595.66;;;26.15;48.88
42289;BME280;30230;47.520;19.016;2022-08-19T06:48:47;98598.94;;;26.17;49.21
42289;BME280;30230;47.520;19.016;2022-08-19T06:50:48;98596.03;;;26.31;48.64
42289;BME280;30230;47.520;19.016;2022-08-19T06:52:51;98592.78;;;26.38;48.48
42289;BME280;30230;47.520;19.016;2022-08-19T06:54:52;98602.13;;;26.42;48.13
42289;BME280;30230;47.520;19.016;2022-08-19T06:56:52;98597.38;;;26.42;48.58
42289;BME280;30230;47.520;19.016;2022-08-19T06:58:52;98602.94;;;26.60;47.73
42289;BME280;30230;47.520;19.016;2022-08-19T07:00:53;98604.09;;;26.67;47.99
42289;BME280;30230;47.520;19.016;2022-08-19T07:02:53;98610.28;;;26.73;48.09
42289;BME280;30230;47.520;19.016;2022-08-19T07:04:54;98613.69;;;26.79;47.68
42289;BME280;30230;47.520;19.016;2022-08-19T07:06:56;98612.38;;;26.85;46.98
42289;BME280;30230;47.520;19.016;2022-08-19T07:08:58;98623.59;;;26.97;47.04
42289;BME280;30230;47.520;19.016;2022-08-19T07:10:58;98618.06;;;27.06;47.20
42289;BME280;30230;47.520;19.016;2022-08-19T07:12:59;98635.84;;;27.13;46.85
42289;BME280;30230;47.520;19.016;2022-08-19T07:14:59;98638.63;;;27.22;46.64
42289;BME280;30230;47.520;19.016;2022-08-19T07:17:00;98629.97;;;27.23;46.24
42289;BME280;30230;47.520;19.016;2022-08-19T07:19:01;98631.91;;;27.32;46.04
42289;BME280;30230;47.520;19.016;2022-08-19T07:21:06;98634.34;;;27.42;46.47
42289;BME280;30230;47.520;19.016;2022-08-19T07:23:07;98629.59;;;27.51;46.15
42289;BME280;30230;47.520;19.016;2022-08-19T07:25:09;98626.28;;;27.58;45.53
42289;BME280;30230;47.520;19.016;2022-08-19T07:27:09;98636.56;;;27.66;45.91
42289;BME280;30230;47.520;19.016;2022-08-19T07:29:11;98632.28;;;27.68;45.59
42289;BME280;30230;47.520;19.016;2022-08-19T07:31:13;98627.84;;;27.85;46.22
42289;BME280;30230;47.520;19.016;2022-08-19T07:33:14;98626.81;;;27.98;45.23
42289;BME280;30230;47.520;19.016;2022-08-19T07:35:14;98629.25;;;27.99;44.62
42289;BME280;30230;47.520;19.016;2022-08-19T07:37:15;98631.66;;;28.10;44.79
42289;BME280;30230;47.520;19.016;2022-08-19T07:39:28;98627.69;;;28.19;44.75
42289;BME280;30230;47.520;19.016;2022-08-19T07:41:30;98624.34;;;28.35;44.95
42289;BME280;30230;47.520;19.016;2022-08-19T07:43:31;98619.56;;;28.44;44.23
42289;BME280;30230;47.520;19.016;2022-08-19T07:45:32;98621.84;;;28.63;44.12
42289;BME280;30230;47.520;19.016;2022-08-19T07:47:32;98622.06;;;28.78;43.69
42289;BME280;30230;47.520;19.016;2022-08-19T07:49:33;98619.41;;;28.82;42.80
42289;BME280;30230;47.520;19.016;2022-08-19T07:51:34;98611.78;;;29.00;42.42
42289;BME280;30230;47.520;19.016;2022-08-19T07:53:35;98616.06;;;29.10;42.40
42289;BME280;30230;47.520;19.016;2022-08-19T07:55:36;98615.78;;;29.23;42.16
42289;BME280;30230;47.520;19.016;2022-08-19T07:57:37;98614.91;;;29.31;42.00
42289;BME280;30230;47.520;19.016;2022-08-19T07:59:39;98618.16;;;29.46;41.61
42289;BME280;30230;47.520;19.016;2022-08-19T08:01:40;98625.88;;;29.61;41.38
42289;BME280;30230;47.520;19.016;2022-08-19T08:03:41;98620.00;;;29.75;40.46
42289;BME280;30230;47.520;19.016;2022-08-19T08:06:00;98618.72;;;29.97;40.38
42289;BME280;30230;47.520;19.016;2022-08-19T08:08:19;98617.22;;;30.12;39.41
42289;BME280;30230;47.520;19.016;2022-08-19T08:10:38;98618.50;;;30.26;39.10
42289;BME280;30230;47.520;19.016;2022-08-19T08:12:40;98625.00;;;30.30;39.09
42289;BME280;30230;47.520;19.016;2022-08-19T08:14:49;98617.22;;;30.36;38.72
42289;BME280;30230;47.520;19.016;2022-08-19T08:16:50;98622.56;;;30.41;39.08
42289;BME280;30230;47.520;19.016;2022-08-19T08:18:51;98630.78;;;30.50;38.00
42289;BME280;30230;47.520;19.016;2022-08-19T08:20:51;98623.34;;;30.54;37.32
42289;BME280;30230;47.520;19.016;2022-08-19T08:22:52;98630.16;;;30.69;37.54
42289;BME280;30230;47.520;19.016;2022-08-19T08:25:14;98626.47;;;30.77;37.25
42289;BME280;30230;47.520;19.016;2022-08-19T08:27:15;98626.09;;;30.78;37.82
42289;BME280;30230;47.520;19.016;2022-08-19T08:29:16;98621.19;;;30.88;37.06
42289;BME280;30230;47.520;19.016;2022-08-19T08:31:17;98623.25;;;30.91;36.84
42289;BME280;30230;47.520;19.016;2022-08-19T08:33:20;98617.66;;;31.03;36.73
42289;BME280;30230;47.520;19.016;2022-08-19T08:35:23;98628.03;;;31.18;36.83
42289;BME280;30230;47.520;19.016;2022-08-19T08:37:23;98627.63;;;31.32;36.46
42289;BME280;30230;47.520;19.016;2022-08-19T08:39:24;98619.91;;;31.41;35.84
42289;BME280;30230;47.520;19.016;2022-08-19T08:43:37;98616.53;;;31.63;35.01
42289;BME280;30230;47.520;19.016;2022-08-19T08:45:47;98610.75;;;31.72;34.49
42289;BME280;30230;47.520;19.016;2022-08-19T08:47:51;98605.19;;;31.72;34.30
42289;BME280;30230;47.520;19.016;2022-08-19T08:52:15;98583.84;;;31.96;33.58
42289;BME280;30230;47.520;19.016;2022-08-19T08:54:20;98588.53;;;31.92;34.20
42289;BME280;30230;47.520;19.016;2022-08-19T08:56:24;98576.09;;;31.89;34.64
42289;BME280;30230;47.520;19.016;2022-08-19T08:58:41;98593.13;;;32.00;33.91
42289;BME280;30230;47.520;19.016;2022-08-19T09:00:47;98599.84;;;32.14;34.15
42289;BME280;30230;47.520;19.016;2022-08-19T09:02:48;98597.75;;;32.27;33.76
42289;BME280;30230;47.520;19.016;2022-08-19T09:04:48;98596.84;;;32.39;33.50
42289;BME280;30230;47.520;19.016;2022-08-19T09:09:15;98593.00;;;32.63;32.31
42289;BME280;30230;47.520;19.016;2022-08-19T09:16:24;98598.19;;;33.00;32.45
42289;BME280;30230;47.520;19.016;2022-08-19T09:18:49;98597.28;;;33.15;32.13
42289;BME280;30230;47.520;19.016;2022-08-19T09:20:53;98579.91;;;33.25;31.85
42289;BME280;30230;47.520;19.016;2022-08-19T09:22:53;98588.19;;;33.41;31.27
42289;BME280;30230;47.520;19.016;2022-08-19T09:24:54;98581.13;;;33.47;31.53
42289;BME280;30230;47.520;19.016;2022-08-19T09:26:55;98578.56;;;33.61;31.81
42289;BME280;30230;47.520;19.016;2022-08-19T09:28:55;98576.19;;;33.63;31.28
42289;BME280;30230;47.520;19.016;2022-08-19T09:30:58;98569.59;;;33.75;30.56
42289;BME280;30230;47.520;19.016;2022-08-19T09:32:59;98574.81;;;33.77;30.38
42289;BME280;30230;47.520;19.016;2022-08-19T09:35:00;98570.72;;;33.93;30.58
42289;BME280;30230;47.520;19.016;2022-08-19T09:37:01;98570.00;;;34.00;30.29
42289;BME280;30230;47.520;19.016;2022-08-19T09:39:03;98568.94;;;34.08;29.64
42289;BME280;30230;47.520;19.016;2022-08-19T09:41:05;98569.53;;;34.21;29.31
42289;BME280;30230;47.520;19.016;2022-08-19T09:43:06;98566.47;;;34.30;29.08
42289;BME280;30230;47.520;19.016;2022-08-19T09:45:07;98563.72;;;34.33;29.23
42289;BME280;30230;47.520;19.016;2022-08-19T09:47:13;98563.56;;;34.49;29.14
42289;BME280;30230;47.520;19.016;2022-08-19T09:49:15;98573.34;;;34.62;28.95
42289;BME280;30230;47.520;19.016;2022-08-19T09:51:22;98564.63;;;34.71;28.96
42289;BME280;30230;47.520;19.016;2022-08-19T09:53:23;98553.06;;;34.76;28.31
42289;BME280;30230;47.520;19.016;2022-08-19T09:55:25;98551.19;;;34.87;28.56
42289;BME280;30230;47.520;19.016;2022-08-19T09:57:25;98546.53;;;34.95;28.17
42289;BME280;30230;47.520;19.016;2022-08-19T09:59:26;98544.25;;;35.08;28.58
42289;BME280;30230;47.520;19.016;2022-08-19T10:01:28;98546.75;;;35.20;27.81
42289;BME280;30230;47.520;19.016;2022-08-19T10:03:30;98539.19;;;35.24;27.97
42289;BME280;30230;47.520;19.016;2022-08-19T10:05:31;98537.63;;;35.30;28.41
42289;BME280;30230;47.520;19.016;2022-08-19T10:07:49;98534.16;;;35.44;27.73
42289;BME280;30230;47.520;19.016;2022-08-19T10:09:50;98541.50;;;35.52;27.44
42289;BME280;30230;47.520;19.016;2022-08-19T10:11:50;98552.41;;;35.61;28.63
42289;BME280;30230;47.520;19.016;2022-08-19T10:13:51;98551.75;;;35.78;27.19
42289;BME280;30230;47.520;19.016;2022-08-19T10:15:53;98540.91;;;35.80;27.97
42289;BME280;30230;47.520;19.016;2022-08-19T10:17:54;98536.59;;;35.90;26.60
42289;BME280;30230;47.520;19.016;2022-08-19T10:19:54;98537.09;;;36.03;27.80
42289;BME280;30230;47.520;19.016;2022-08-19T10:21:55;98536.78;;;36.15;27.83
42289;BME280;30230;47.520;19.016;2022-08-19T10:23:59;98526.75;;;36.17;26.47
42289;BME280;30230;47.520;19.016;2022-08-19T10:26:00;98534.38;;;36.17;25.54
42289;BME280;30230;47.520;19.016;2022-08-19T10:28:01;98533.13;;;36.11;25.28
42289;BME280;30230;47.520;19.016;2022-08-19T10:30:01;98528.75;;;36.17;26.67
42289;BME280;30230;47.520;19.016;2022-08-19T10:32:03;98530.81;;;36.27;25.49
42289;BME280;30230;47.520;19.016;2022-08-19T10:34:05;98532.03;;;36.26;26.25
42289;BME280;30230;47.520;19.016;2022-08-19T10:36:13;98531.69;;;36.35;26.51
42289;BME280;30230;47.520;19.016;2022-08-19T10:38:17;98535.00;;;36.51;26.36
42289;BME280;30230;47.520;19.016;2022-08-19T10:40:18;98541.06;;;36.64;25.28
42289;BME280;30230;47.520;19.016;2022-08-19T10:42:18;98537.84;;;36.62;24.85
42289;BME280;30230;47.520;19.016;2022-08-19T10:44:19;98532.59;;;36.57;25.02
42289;BME280;30230;47.520;19.016;2022-08-19T10:46:22;98534.59;;;36.53;25.86
42289;BME280;30230;47.520;19.016;2022-08-19T10:48:23;98528.56;;;36.54;25.82
42289;BME280;30230;47.520;19.016;2022-08-19T10:50:24;98526.66;;;36.76;24.86
42289;BME280;30230;47.520;19.016;2022-08-19T10:52:45;98530.28;;;36.84;25.14